KAXA

Algona Municipal Airport

Algona, Iowa, USA

KAXA 110855Z AUTO 20008KT 10SM OVC110 01/M03 A2987 RMK AO2 PWINO

Observed Flight Rules
Dec-11 @ 08:55 UTC (34 minutes ago) Visual Flight Rules
Wind Visibility Clouds
200° at 8 knots 10 miles
  • Overcast at 11,000' AGL
Temperatures Readings
Current 1°C / 34°F
Dewpoint -3°C / 27°F
Humidity 75%
Altimeter 29.87" Hg
Pressure 1012 hPa
Elevation 372
Observed Flight Rules
Dec-11 @ 08:55 UTC
(34 minutes ago)
VFR
Wind Visibility
200° at 8 knots 10 miles
Clouds
  • Overcast at 11,000' AGL
Temperature Dewpoint
1°C / 34°F -3°C / 27°F
Humidity Altimeter Pressure
75% 29.87" Hg 1012 hPa